Time;durP1;ratioP1;P1;durP2;ratioP2;P2;SDS_P1;SDS_P2;PMS_P1;PMS_P2;Temp;Humidity;BMP_temperature;BMP_pressure;BME280_temperature;BME280_humidity;BME280_pressure;Samples;Min_cycle;Max_cycle;Signal;HPM_P1;HPM_P2
2023/01/15 00:01:04;;;;;;;15.77;2.15;;;6.30;99.90;;;;;;5101289;28;20051;-64
2023/01/15 00:03:30;;;;;;;14.75;2.47;;;6.30;99.90;;;;;;5097579;28;20043;-62
2023/01/15 00:06:00;;;;;;;13.18;2.05;;;6.30;99.90;;;;;;5095507;28;20113;-65
2023/01/15 00:08:26;;;;;;;14.65;2.28;;;6.30;99.90;;;;;;5096904;28;20085;-64
2023/01/15 00:10:51;;;;;;;19.50;2.83;;;6.30;99.90;;;;;;5089781;28;20711;-63
2023/01/15 00:13:27;;;;;;;12.60;2.53;;;6.30;99.90;;;;;;5102948;28;20035;-60
2023/01/15 00:15:53;;;;;;;13.30;2.10;;;6.30;99.90;;;;;;5094973;28;20131;-63
2023/01/15 00:18:18;;;;;;;16.98;2.58;;;6.30;99.90;;;;;;5095784;28;20563;-63
2023/01/15 00:20:44;;;;;;;21.70;2.20;;;6.30;99.90;;;;;;5095421;28;20047;-63
2023/01/15 00:27:37;;;;;;;16.40;2.40;;;6.30;99.90;;;;;;5092362;28;20393;-63
2023/01/15 00:28:47;;;;;;;11.35;2.30;;;6.20;99.90;;;;;;5093500;28;20086;-65
2023/01/15 00:31:13;;;;;;;9.52;1.75;;;6.30;99.90;;;;;;5089616;28;20079;-63
2023/01/15 00:33:38;;;;;;;14.25;2.30;;;6.20;99.90;;;;;;5092608;28;20115;-63
2023/01/15 00:36:04;;;;;;;15.82;2.05;;;6.20;99.90;;;;;;5092798;28;20479;-64
2023/01/15 00:38:30;;;;;;;14.50;2.22;;;6.20;99.90;;;;;;5092617;28;20040;-65
2023/01/15 00:40:56;;;;;;;11.95;2.28;;;6.20;99.90;;;;;;5091334;28;20035;-64
2023/01/15 00:43:21;;;;;;;16.08;2.22;;;6.20;99.90;;;;;;5094168;28;20031;-61
2023/01/15 00:45:47;;;;;;;19.42;3.00;;;6.20;99.90;;;;;;5092912;28;20039;-63
2023/01/15 00:48:12;;;;;;;13.98;2.05;;;6.30;99.90;;;;;;5102053;28;20122;-62
2023/01/15 00:50:38;;;;;;;9.57;1.98;;;6.30;99.90;;;;;;5093629;28;20043;-63
2023/01/15 00:53:03;;;;;;;11.55;1.98;;;6.20;99.90;;;;;;5102439;28;20085;-64
2023/01/15 00:55:29;;;;;;;16.58;2.53;;;6.30;99.90;;;;;;5101686;28;20031;-66
2023/01/15 00:57:55;;;;;;;14.50;2.63;;;6.30;99.90;;;;;;5103259;28;20049;-64
2023/01/15 01:00:20;;;;;;;16.08;2.22;;;6.30;99.90;;;;;;5083132;28;20577;-60
2023/01/15 01:02:46;;;;;;;17.60;2.30;;;6.30;99.90;;;;;;5088426;28;20566;-60
2023/01/15 01:05:11;;;;;;;14.32;2.15;;;6.20;99.90;;;;;;5089016;28;20044;-64
2023/01/15 01:07:37;;;;;;;17.75;2.33;;;6.20;99.90;;;;;;5080489;28;20039;-66
2023/01/15 01:10:03;;;;;;;19.77;3.80;;;6.20;99.90;;;;;;5081164;28;20493;-62
2023/01/15 01:12:32;;;;;;;17.63;2.70;;;6.30;99.90;;;;;;5102480;28;20543;-63
2023/01/15 01:14:57;;;;;;;18.23;2.20;;;6.30;99.90;;;;;;5102675;28;20040;-63
2023/01/15 01:17:23;;;;;;;18.17;2.50;;;6.30;99.90;;;;;;5098906;28;20574;-61
2023/01/15 01:19:48;;;;;;;18.55;2.38;;;6.30;99.90;;;;;;5091373;28;20600;-61
2023/01/15 01:22:17;;;;;;;21.75;3.15;;;6.40;99.90;;;;;;5082375;28;20066;-64
2023/01/15 01:24:43;;;;;;;15.07;2.47;;;6.40;99.90;;;;;;5081650;28;20048;-64
2023/01/15 01:27:08;;;;;;;19.20;2.65;;;6.40;99.90;;;;;;5082545;28;20036;-61
2023/01/15 01:29:34;;;;;;;19.98;2.83;;;6.40;99.90;;;;;;5091130;28;20423;-64
2023/01/15 01:31:59;;;;;;;18.52;2.80;;;6.40;99.90;;;;;;5100873;28;20733;-64
2023/01/15 01:34:25;;;;;;;17.60;2.60;;;6.40;99.90;;;;;;5081139;28;20834;-63
2023/01/15 01:36:51;;;;;;;13.23;2.75;;;6.40;99.90;;;;;;5081581;28;20036;-61
2023/01/15 01:39:22;;;;;;;20.77;2.30;;;6.40;99.90;;;;;;5080702;28;20043;-61
2023/01/15 01:41:48;;;;;;;19.35;2.65;;;6.40;99.90;;;;;;5082296;28;20044;-63
2023/01/15 01:44:32;;;;;;;13.38;2.13;;;6.40;99.90;;;;;;5092241;28;20031;-61
2023/01/15 01:47:00;;;;;;;12.10;2.45;;;6.40;99.90;;;;;;5102405;28;20665;-63
2023/01/15 01:49:26;;;;;;;18.48;2.58;;;6.40;99.90;;;;;;5096211;28;20155;-60
2023/01/15 01:52:02;;;;;;;17.35;2.97;;;6.50;99.90;;;;;;5081778;28;20067;-64
2023/01/15 01:54:30;;;;;;;13.55;2.58;;;6.40;99.90;;;;;;5081382;28;20040;-61
2023/01/15 01:56:56;;;;;;;16.80;2.38;;;6.40;99.90;;;;;;5083087;28;20050;-65
2023/01/15 01:59:24;;;;;;;16.88;2.63;;;6.40;99.90;;;;;;5102539;28;20062;-64
2023/01/15 02:01:51;;;;;;;14.02;2.30;;;6.30;99.90;;;;;;5102363;28;20638;-61
2023/01/15 02:04:18;;;;;;;16.45;2.70;;;6.40;99.90;;;;;;5082888;28;20079;-62
2023/01/15 02:06:48;;;;;;;16.92;2.60;;;6.40;99.90;;;;;;5080379;28;20802;-63
2023/01/15 02:09:14;;;;;;;20.65;2.47;;;6.40;99.90;;;;;;5082013;28;20066;-65
2023/01/15 02:11:39;;;;;;;19.13;2.58;;;6.30;99.90;;;;;;5082946;28;20048;-63
2023/01/15 02:14:12;;;;;;;19.50;3.10;;;6.30;99.90;;;;;;5082398;28;20059;-62
2023/01/15 02:16:55;;;;;;;21.10;2.78;;;6.30;99.90;;;;;;5080895;28;20036;-65
2023/01/15 02:19:53;;;;;;;15.63;2.35;;;6.30;99.90;;;;;;5098682;28;20738;-63
2023/01/15 02:22:54;;;;;;;14.65;3.38;;;6.30;99.90;;;;;;5084586;28;20769;-62
2023/01/15 02:25:31;;;;;;;17.23;3.00;;;6.30;99.90;;;;;;5084116;28;20054;-65
2023/01/15 02:28:21;;;;;;;13.45;1.95;;;6.30;99.90;;;;;;5085642;28;20040;-60
2023/01/15 02:30:58;;;;;;;16.00;2.42;;;6.30;99.90;;;;;;5085516;28;20036;-61
2023/01/15 02:33:32;;;;;;;20.30;2.88;;;6.30;99.90;;;;;;5085995;28;20098;-63
2023/01/15 02:36:07;;;;;;;9.63;2.33;;;6.30;99.90;;;;;;5099353;28;20044;-62
2023/01/15 02:38:47;;;;;;;25.02;2.80;;;6.30;99.90;;;;;;5085012;28;20407;-65
2023/01/15 02:41:16;;;;;;;21.13;2.53;;;6.30;99.90;;;;;;5085879;28;20055;-64
2023/01/15 02:43:49;;;;;;;14.15;2.03;;;6.30;99.90;;;;;;5084921;28;20490;-61
2023/01/15 02:46:19;;;;;;;14.27;2.38;;;6.40;99.90;;;;;;5084837;28;20048;-60
2023/01/15 02:48:51;;;;;;;13.18;2.38;;;6.40;99.90;;;;;;5085505;28;20115;-64
2023/01/15 02:51:21;;;;;;;14.52;2.47;;;6.40;99.90;;;;;;5083263;28;20113;-65
2023/01/15 02:53:52;;;;;;;16.50;2.97;;;6.40;99.90;;;;;;5090612;28;20036;-65
2023/01/15 02:56:22;;;;;;;19.95;2.60;;;6.40;99.90;;;;;;5105070;28;20040;-66
2023/01/15 02:58:56;;;;;;;18.80;3.13;;;6.40;99.90;;;;;;5097114;28;20047;-64
2023/01/15 03:01:28;;;;;;;18.25;2.92;;;6.40;99.90;;;;;;5084124;28;20062;-63
2023/01/15 03:03:59;;;;;;;19.52;2.50;;;6.40;99.90;;;;;;5086221;28;20425;-60
2023/01/15 03:06:40;;;;;;;17.58;2.70;;;6.40;99.90;;;;;;5083724;28;20052;-61
2023/01/15 03:09:07;;;;;;;19.40;2.88;;;6.40;99.90;;;;;;5084313;28;20097;-62
2023/01/15 03:11:37;;;;;;;14.13;2.67;;;6.40;99.90;;;;;;5083924;28;20043;-65
2023/01/15 03:14:13;;;;;;;20.73;3.88;;;6.40;99.90;;;;;;5084717;28;20040;-61
2023/01/15 03:16:51;;;;;;;20.33;3.10;;;6.40;99.90;;;;;;5092890;28;20588;-63
2023/01/15 03:19:26;;;;;;;17.52;2.80;;;6.40;99.90;;;;;;5089206;28;20055;-64
2023/01/15 03:22:06;;;;;;;16.40;2.30;;;6.40;99.90;;;;;;5103988;28;20039;-63
2023/01/15 03:25:19;;;;;;;17.90;2.72;;;6.30;99.90;;;;;;5103534;28;20106;-61
2023/01/15 03:27:44;;;;;;;23.30;3.35;;;6.30;99.90;;;;;;5069628;28;20113;-62
2023/01/15 03:30:15;;;;;;;13.45;2.45;;;6.30;99.90;;;;;;5104365;28;20197;-67
2023/01/15 03:32:41;;;;;;;14.05;2.35;;;6.30;99.90;;;;;;5099167;28;20597;-60
2023/01/15 03:35:27;;;;;;;18.38;2.72;;;6.30;99.90;;;;;;5083332;28;20087;-61
2023/01/15 03:37:53;;;;;;;18.23;3.05;;;6.30;99.90;;;;;;5082199;28;20098;-62
2023/01/15 03:40:19;;;;;;;20.20;3.38;;;6.30;99.90;;;;;;5084244;28;20048;-64
2023/01/15 03:45:53;;;;;;;17.17;2.83;;;6.30;99.90;;;;;;5084072;28;20658;-62
2023/01/15 03:48:35;;;;;;;21.27;2.67;;;6.20;99.90;;;;;;5084894;28;20044;-64
2023/01/15 03:51:22;;;;;;;19.52;2.72;;;6.20;99.90;;;;;;5102748;28;20081;-62
2023/01/15 03:53:56;;;;;;;13.48;2.30;;;6.30;99.90;;;;;;5104186;28;20040;-63
2023/01/15 03:56:49;;;;;;;18.33;3.40;;;6.20;99.90;;;;;;5104285;28;20885;-59
2023/01/15 03:59:28;;;;;;;19.67;2.97;;;6.30;99.90;;;;;;5094168;28;20122;-62
2023/01/15 04:01:54;;;;;;;19.17;2.90;;;6.20;99.90;;;;;;5082377;28;20687;-61
2023/01/15 04:04:20;;;;;;;15.23;2.58;;;6.20;99.90;;;;;;5096664;28;20178;-63
2023/01/15 04:06:46;;;;;;;18.15;3.28;;;6.30;99.90;;;;;;5083256;28;20458;-59
2023/01/15 04:09:13;;;;;;;14.48;2.58;;;6.20;99.90;;;;;;5083427;28;20050;-62
2023/01/15 04:11:46;;;;;;;22.08;3.08;;;6.30;99.90;;;;;;5082563;28;20111;-63
2023/01/15 04:14:13;;;;;;;22.83;3.05;;;6.30;99.90;;;;;;5091019;28;20044;-62
2023/01/15 04:16:39;;;;;;;13.80;2.90;;;6.30;99.90;;;;;;5083327;28;20630;-62
2023/01/15 04:19:05;;;;;;;14.85;2.80;;;6.20;99.90;;;;;;5087081;28;20040;-61
2023/01/15 04:21:31;;;;;;;11.85;2.45;;;6.20;99.90;;;;;;5103533;27;20032;-62
2023/01/15 04:23:56;;;;;;;13.10;2.15;;;6.30;99.90;;;;;;5097616;28;20122;-65
2023/01/15 04:26:22;;;;;;;17.92;2.80;;;6.30;99.90;;;;;;5083387;28;20597;-62
2023/01/15 04:28:48;;;;;;;14.45;2.42;;;6.30;99.90;;;;;;5083939;28;20039;-60
2023/01/15 04:31:14;;;;;;;14.80;2.90;;;6.30;99.90;;;;;;5083626;28;20044;-62
2023/01/15 04:33:40;;;;;;;19.55;2.40;;;6.30;99.90;;;;;;5095431;28;20181;-64
2023/01/15 04:36:07;;;;;;;14.60;2.25;;;6.20;99.90;;;;;;5100575;28;20115;-66
2023/01/15 04:38:39;;;;;;;17.73;2.45;;;6.20;99.90;;;;;;5102809;28;20044;-64
2023/01/15 04:44:07;;;;;;;13.18;2.65;;;6.20;99.90;;;;;;5083687;28;20582;-65
2023/01/15 04:46:38;;;;;;;21.15;2.35;;;6.20;99.90;;;;;;5081626;28;20069;-66
2023/01/15 04:49:24;;;;;;;16.45;2.63;;;6.20;99.90;;;;;;5095697;28;20055;-62
2023/01/15 04:51:50;;;;;;;15.18;3.13;;;6.10;99.90;;;;;;5080481;28;20056;-63
2023/01/15 04:54:16;;;;;;;16.73;2.30;;;6.20;99.90;;;;;;5081761;28;20036;-63
2023/01/15 04:56:49;;;;;;;14.07;2.58;;;6.10;99.90;;;;;;5085272;28;20055;-61
2023/01/15 04:59:16;;;;;;;14.63;2.65;;;6.10;99.90;;;;;;5082942;28;20652;-63
2023/01/15 05:01:41;;;;;;;15.50;2.92;;;6.10;99.90;;;;;;5082993;28;20048;-60
2023/01/15 05:04:07;;;;;;;17.20;2.88;;;6.10;99.90;;;;;;5084338;28;20047;-60
2023/01/15 05:06:33;;;;;;;25.73;2.65;;;6.10;99.90;;;;;;5102362;28;20088;-64
2023/01/15 05:09:03;;;;;;;16.33;2.58;;;6.10;99.90;;;;;;5102623;28;20036;-61
2023/01/15 05:11:29;;;;;;;18.15;2.78;;;6.10;99.90;;;;;;5085794;28;20049;-63
2023/01/15 05:13:55;;;;;;;16.98;3.38;;;6.00;99.90;;;;;;5083009;28;20052;-64
2023/01/15 05:16:26;;;;;;;14.88;2.75;;;6.10;99.90;;;;;;5099962;28;20032;-63
2023/01/15 05:18:54;;;;;;;15.65;2.20;;;6.00;99.90;;;;;;5085192;28;20104;-62
2023/01/15 05:21:21;;;;;;;10.60;2.22;;;6.00;99.90;;;;;;5082300;28;20055;-60
2023/01/15 05:23:49;;;;;;;14.35;2.50;;;6.00;99.90;;;;;;5082121;28;20044;-61
2023/01/15 05:26:15;;;;;;;13.10;2.33;;;6.10;99.90;;;;;;5088352;28;20048;-64
2023/01/15 05:28:41;;;;;;;20.75;3.00;;;6.00;99.90;;;;;;5081659;28;20043;-61
2023/01/15 05:31:12;;;;;;;16.05;2.58;;;6.00;99.90;;;;;;5082748;28;20032;-65
2023/01/15 05:33:38;;;;;;;13.77;2.55;;;6.00;99.90;;;;;;5094145;28;20082;-61
2023/01/15 05:36:13;;;;;;;15.05;2.40;;;5.90;99.90;;;;;;5081942;28;20052;-62
2023/01/15 05:38:39;;;;;;;21.20;3.10;;;5.90;99.90;;;;;;5085470;28;20066;-63
2023/01/15 05:41:47;;;;;;;15.60;2.63;;;5.90;99.90;;;;;;5101851;28;20677;-61
2023/01/15 05:43:53;;;;;;;17.17;2.85;;;5.90;99.90;;;;;;5083709;28;20124;-61
2023/01/15 05:46:19;;;;;;;17.38;2.55;;;5.90;99.90;;;;;;5081120;28;20056;-62
2023/01/15 05:48:45;;;;;;;13.02;2.53;;;5.80;99.90;;;;;;5096078;28;20054;-63
2023/01/15 05:51:11;;;;;;;13.38;2.30;;;5.80;99.90;;;;;;5081948;28;20083;-61
2023/01/15 05:53:36;;;;;;;15.68;2.42;;;5.80;99.90;;;;;;5086157;28;20123;-61
2023/01/15 05:56:03;;;;;;;15.18;2.38;;;5.80;99.90;;;;;;5085950;28;20372;-65
2023/01/15 05:58:29;;;;;;;14.77;2.97;;;5.80;99.90;;;;;;5085495;28;20540;-61
2023/01/15 06:00:54;;;;;;;14.35;2.63;;;5.80;99.90;;;;;;5086586;28;20056;-66
2023/01/15 06:03:21;;;;;;;18.15;2.88;;;5.80;99.90;;;;;;5096329;28;20640;-62
2023/01/15 06:05:54;;;;;;;14.18;2.40;;;5.80;99.90;;;;;;5088273;28;20051;-62
2023/01/15 06:08:22;;;;;;;20.02;2.13;;;5.80;99.90;;;;;;5085209;28;20040;-61
2023/01/15 06:10:50;;;;;;;13.02;2.65;;;5.80;99.90;;;;;;5086331;28;20097;-62
2023/01/15 06:13:16;;;;;;;13.77;2.92;;;5.80;99.90;;;;;;5087052;28;20043;-61
2023/01/15 06:15:43;;;;;;;17.55;2.13;;;5.80;99.90;;;;;;5097927;28;20039;-61
2023/01/15 06:18:09;;;;;;;12.65;1.90;;;5.80;99.90;;;;;;5096602;28;20100;-60
2023/01/15 06:20:36;;;;;;;9.60;1.77;;;5.70;99.90;;;;;;5081758;28;20043;-61
2023/01/15 06:23:02;;;;;;;15.43;2.30;;;5.70;99.90;;;;;;5105100;28;20531;-62
2023/01/15 06:25:27;;;;;;;15.82;2.47;;;5.60;99.90;;;;;;5095855;28;20044;-62
2023/01/15 06:27:53;;;;;;;12.55;2.08;;;5.60;99.90;;;;;;5086232;28;20756;-59
2023/01/15 06:30:30;;;;;;;14.20;2.75;;;5.60;99.90;;;;;;5085631;28;20123;-64
2023/01/15 06:33:01;;;;;;;8.93;2.38;;;5.50;99.90;;;;;;5092294;28;20028;-60
2023/01/15 06:35:27;;;;;;;10.55;2.33;;;5.50;99.90;;;;;;5090863;28;20036;-63
2023/01/15 06:38:01;;;;;;;10.07;2.17;;;5.50;99.90;;;;;;5084240;28;20043;-62
2023/01/15 06:40:27;;;;;;;13.50;2.47;;;5.50;99.90;;;;;;5085979;28;20047;-61
2023/01/15 06:48:27;;;;;;;11.23;2.30;;;5.40;99.90;;;;;;5085679;28;20129;-60
2023/01/15 06:50:53;;;;;;;20.65;2.95;;;5.40;99.90;;;;;;5085533;28;20125;-61
2023/01/15 06:53:27;;;;;;;16.05;2.33;;;5.40;99.90;;;;;;5100201;28;20038;-63
2023/01/15 06:55:53;;;;;;;;;;;5.40;99.90;;;;;;5105741;28;20036;-61
2023/01/15 06:58:21;;;;;;;15.75;2.03;;;5.40;99.90;;;;;;5098765;28;19923;-64
2023/01/15 07:00:53;;;;;;;11.98;2.10;;;5.40;99.90;;;;;;5084703;28;20490;-62
2023/01/15 07:03:19;;;;;;;14.38;2.13;;;5.30;99.90;;;;;;5102054;28;20127;-62
2023/01/15 07:05:45;;;;;;;14.45;2.95;;;5.30;99.90;;;;;;5086413;28;20123;-63
2023/01/15 07:08:10;;;;;;;12.95;2.05;;;5.30;99.90;;;;;;5083649;28;20503;-62
2023/01/15 07:10:36;;;;;;;13.48;2.70;;;5.30;99.90;;;;;;5083559;28;20040;-63
2023/01/15 07:13:02;;;;;;;13.20;2.10;;;5.20;99.90;;;;;;5083318;28;20467;-62
2023/01/15 07:15:27;;;;;;;11.23;2.53;;;5.20;99.90;;;;;;5095352;28;20524;-63
2023/01/15 07:17:54;;;;;;;16.23;2.50;;;5.20;99.90;;;;;;5103907;28;20036;-61
2023/01/15 07:20:20;;;;;;;18.30;2.35;;;5.20;99.90;;;;;;5091296;28;20051;-61
2023/01/15 07:22:48;;;;;;;17.45;2.85;;;5.20;99.90;;;;;;5081791;28;20114;-59
2023/01/15 07:25:14;;;;;;;13.57;2.47;;;5.20;99.90;;;;;;5082847;28;20040;-61
2023/01/15 07:27:39;;;;;;;11.10;1.95;;;5.30;99.90;;;;;;5092491;28;20529;-63
2023/01/15 07:30:06;;;;;;;13.73;2.40;;;5.30;99.90;;;;;;5103298;28;20130;-63
2023/01/15 07:32:31;;;;;;;13.48;2.10;;;5.40;99.90;;;;;;5099087;28;20101;-62
2023/01/15 07:35:00;;;;;;;13.00;2.58;;;5.40;99.90;;;;;;5085130;28;20086;-62
2023/01/15 07:37:25;;;;;;;9.32;1.90;;;5.40;99.90;;;;;;5103875;27;20494;-64
2023/01/15 07:39:53;;;;;;;21.25;2.80;;;5.40;99.90;;;;;;5104396;28;20615;-62
2023/01/15 07:50:32;;;;;;;9.77;1.80;;;5.50;99.90;;;;;;5084353;28;20466;-64
2023/01/15 07:52:58;;;;;;;11.88;2.22;;;5.50;99.90;;;;;;5082701;28;20119;-64
2023/01/15 07:55:24;;;;;;;8.65;1.98;;;5.50;99.90;;;;;;5082722;28;20050;-63
2023/01/15 07:57:50;;;;;;;21.25;2.63;;;5.50;99.90;;;;;;5095804;28;20043;-62
2023/01/15 08:00:20;;;;;;;14.55;2.72;;;5.50;99.90;;;;;;5104926;28;20047;-63
2023/01/15 08:02:48;;;;;;;14.88;2.45;;;5.50;99.90;;;;;;5097695;28;20455;-62
2023/01/15 08:05:14;;;;;;;12.88;2.65;;;5.50;99.90;;;;;;5094262;28;20510;-60
2023/01/15 08:07:41;;;;;;;11.63;1.90;;;5.50;98.90;;;;;;5101966;28;20122;-63
2023/01/15 08:10:09;;;;;;;14.40;2.38;;;5.50;99.80;;;;;;5089596;28;20786;-61
2023/01/15 08:15:23;;;;;;;10.70;2.60;;;5.50;99.00;;;;;;5095925;28;20044;-64
2023/01/15 08:17:50;;;;;;;12.93;2.63;;;5.50;99.50;;;;;;5098244;28;20039;-64
2023/01/15 08:20:21;;;;;;;15.63;2.83;;;5.50;99.10;;;;;;5089544;28;20032;-61
2023/01/15 08:22:50;;;;;;;13.60;2.83;;;5.50;99.80;;;;;;5090742;28;20035;-60
2023/01/15 08:25:21;;;;;;;11.07;2.15;;;5.50;99.40;;;;;;5103678;28;20051;-60
2023/01/15 08:27:47;;;;;;;18.73;2.45;;;5.50;99.60;;;;;;5103563;28;20047;-62
2023/01/15 08:30:18;;;;;;;11.98;2.63;;;5.50;99.30;;;;;;5096937;28;20490;-60
2023/01/15 08:32:44;;;;;;;11.40;2.10;;;5.60;98.90;;;;;;5099398;28;20050;-61
2023/01/15 08:35:11;;;;;;;16.80;2.08;;;5.70;99.20;;;;;;5102599;28;20036;-61
2023/01/15 08:37:37;;;;;;;12.13;1.48;;;5.70;99.50;;;;;;5101112;28;20034;-63
2023/01/15 08:40:03;;;;;;;10.10;1.45;;;5.70;98.00;;;;;;5098810;28;20036;-61
2023/01/15 08:42:29;;;;;;;9.45;1.75;;;5.50;99.40;;;;;;5103801;28;20553;-61
2023/01/15 08:44:58;;;;;;;10.13;1.85;;;5.30;99.90;;;;;;5092578;28;20253;-63
2023/01/15 08:47:24;;;;;;;10.85;2.05;;;5.10;99.90;;;;;;5090458;28;20048;-62
2023/01/15 08:49:53;;;;;;;10.98;1.92;;;4.90;99.90;;;;;;5090921;28;20679;-63
2023/01/15 08:52:19;;;;;;;17.67;1.80;;;4.70;99.90;;;;;;5083572;28;20051;-64
2023/01/15 08:54:44;;;;;;;10.05;1.92;;;4.70;99.90;;;;;;5064890;28;20717;-60
2023/01/15 08:57:12;;;;;;;11.43;1.75;;;4.70;99.90;;;;;;5081955;28;20082;-64
2023/01/15 08:59:38;;;;;;;12.15;2.38;;;4.70;99.90;;;;;;5082687;28;20050;-63
2023/01/15 09:02:03;;;;;;;10.68;2.00;;;4.70;99.90;;;;;;5082711;28;20127;-62
2023/01/15 09:04:29;;;;;;;20.30;3.25;;;4.60;99.90;;;;;;5083660;28;20044;-63
2023/01/15 09:06:54;;;;;;;11.38;2.53;;;4.60;99.90;;;;;;5080633;28;20040;-61
2023/01/15 09:09:20;;;;;;;15.38;2.28;;;4.70;99.90;;;;;;5073307;28;20075;-61
2023/01/15 09:11:45;;;;;;;15.48;2.03;;;4.70;99.90;;;;;;5101860;28;20040;-64
2023/01/15 09:14:13;;;;;;;13.20;2.20;;;4.80;99.90;;;;;;5082034;28;20035;-64
2023/01/15 09:16:39;;;;;;;11.68;2.42;;;4.80;99.90;;;;;;5083956;28;20047;-64
2023/01/15 09:19:06;;;;;;;16.38;2.92;;;4.90;99.90;;;;;;5094917;28;20199;-65
2023/01/15 09:21:35;;;;;;;15.77;2.17;;;4.90;99.90;;;;;;5096066;28;20739;-60
2023/01/15 09:24:03;;;;;;;15.85;2.60;;;4.90;99.90;;;;;;5090209;28;20760;-63
2023/01/15 09:26:35;;;;;;;13.70;2.35;;;4.90;99.90;;;;;;5097550;28;20122;-60
2023/01/15 09:29:02;;;;;;;9.82;2.40;;;4.90;99.90;;;;;;5091166;28;20039;-62
2023/01/15 09:31:28;;;;;;;12.90;2.70;;;4.90;99.90;;;;;;5098484;28;20115;-62
2023/01/15 09:33:53;;;;;;;9.60;2.30;;;4.90;99.90;;;;;;5093282;28;20180;-62
2023/01/15 09:36:33;;;;;;;14.43;2.30;;;4.90;99.90;;;;;;5093157;28;20067;-62
2023/01/15 09:39:01;;;;;;;13.13;2.20;;;5.00;99.90;;;;;;5099098;28;20039;-61
2023/01/15 09:44:56;;;;;;;17.92;2.60;;;4.90;99.90;;;;;;5086301;28;20048;-63
2023/01/15 09:47:25;;;;;;;11.85;1.85;;;4.90;99.90;;;;;;5082461;28;20490;-62
2023/01/15 09:50:03;;;;;;;13.75;1.88;;;4.90;99.90;;;;;;5095047;28;20087;-62
2023/01/15 09:53:11;;;;;;;10.13;2.00;;;5.00;99.90;;;;;;5093527;28;20204;-64
2023/01/15 09:55:45;;;;;;;14.85;2.00;;;5.00;99.90;;;;;;5085931;28;20052;-60
2023/01/15 09:58:13;;;;;;;15.80;2.17;;;5.20;99.90;;;;;;5083217;28;20040;-61
2023/01/15 10:00:46;;;;;;;12.30;2.13;;;5.30;99.90;;;;;;5082300;28;20051;-65
2023/01/15 10:03:45;;;;;;;10.68;2.08;;;5.40;99.90;;;;;;5082989;28;20124;-65
2023/01/15 10:06:18;;;;;;;12.00;2.08;;;5.50;99.90;;;;;;5099670;28;20040;-64
2023/01/15 10:08:46;;;;;;;15.57;2.42;;;5.50;99.90;;;;;;5099500;28;20544;-62
2023/01/15 10:11:14;;;;;;;14.05;2.53;;;5.60;99.90;;;;;;5092518;28;20608;-63
2023/01/15 10:13:51;;;;;;;20.83;2.95;;;5.60;99.90;;;;;;5090441;28;20125;-63
2023/01/15 10:16:24;;;;;;;15.10;2.30;;;5.70;99.90;;;;;;5099223;28;20123;-61
2023/01/15 10:18:51;;;;;;;11.35;2.58;;;5.70;99.90;;;;;;5095605;28;20629;-60
2023/01/15 10:21:41;;;;;;;20.80;2.45;;;5.80;99.90;;;;;;5092154;28;20047;-62
2023/01/15 10:24:52;;;;;;;20.00;3.00;;;5.80;99.90;;;;;;5086863;28;20040;-65
2023/01/15 10:27:21;;;;;;;18.58;2.50;;;5.70;99.90;;;;;;5094929;28;20196;-64
2023/01/15 10:29:53;;;;;;;21.58;2.85;;;5.80;99.90;;;;;;5089791;28;20040;-62
2023/01/15 10:32:28;;;;;;;15.10;1.80;;;5.90;99.90;;;;;;5098268;28;20157;-63
2023/01/15 10:35:12;;;;;;;9.45;1.98;;;6.00;99.90;;;;;;5098487;28;20047;-60
2023/01/15 10:38:03;;;;;;;11.77;2.20;;;6.20;99.90;;;;;;5100517;28;20677;-62
2023/01/15 10:41:00;;;;;;;14.15;2.28;;;6.20;99.90;;;;;;5102678;28;20126;-63
2023/01/15 10:43:36;;;;;;;21.17;2.38;;;6.30;99.90;;;;;;5095760;27;20039;-61
2023/01/15 10:46:12;;;;;;;15.25;2.13;;;6.30;99.90;;;;;;5105959;27;20069;-62
2023/01/15 10:48:45;;;;;;;17.67;2.75;;;6.30;99.90;;;;;;5103741;28;20032;-58
2023/01/15 10:51:23;;;;;;;18.10;2.47;;;6.40;99.90;;;;;;5098735;28;20051;-66
2023/01/15 10:54:01;;;;;;;18.70;2.95;;;6.40;99.90;;;;;;5097109;28;20375;-64
2023/01/15 10:56:30;;;;;;;12.40;3.25;;;6.40;99.90;;;;;;5104215;27;20355;-63
2023/01/15 10:59:42;;;;;;;20.05;3.03;;;6.30;99.90;;;;;;5102907;28;20491;-59
2023/01/15 11:02:38;;;;;;;17.33;3.33;;;6.30;99.90;;;;;;5054027;28;20043;-59
2023/01/15 11:05:05;;;;;;;18.48;2.92;;;6.30;99.90;;;;;;5092676;28;20047;-61
2023/01/15 11:07:46;;;;;;;14.13;2.25;;;6.50;99.90;;;;;;5093786;28;20031;-62
2023/01/15 11:10:15;;;;;;;16.88;2.42;;;6.60;99.90;;;;;;5089054;28;20035;-61
2023/01/15 11:21:19;;;;;;;11.40;2.00;;;7.00;99.90;;;;;;5099380;28;20043;-61
2023/01/15 11:23:46;;;;;;;16.20;2.75;;;7.00;99.90;;;;;;5095161;28;20035;-60
2023/01/15 11:26:27;;;;;;;16.13;2.45;;;7.10;99.90;;;;;;5095076;28;20060;-61
2023/01/15 11:28:55;;;;;;;24.25;3.40;;;7.30;99.90;;;;;;5102193;27;20151;-64
2023/01/15 11:31:21;;;;;;;12.32;2.47;;;7.40;99.90;;;;;;5102315;28;20614;-62
2023/01/15 11:34:01;;;;;;;16.02;2.55;;;7.40;99.90;;;;;;5096393;28;20478;-60
2023/01/15 11:36:28;;;;;;;15.43;2.75;;;7.40;99.90;;;;;;5101425;28;20695;-61
2023/01/15 11:38:54;;;;;;;19.30;3.97;;;7.30;99.90;;;;;;5089130;28;20027;-61
2023/01/15 11:52:46;;;;;;;18.63;2.67;;;7.10;99.90;;;;;;5096682;28;20044;-62
2023/01/15 11:55:17;;;;;;;16.95;2.80;;;7.10;99.90;;;;;;5100184;28;20581;-67
2023/01/15 11:57:44;;;;;;;15.85;2.53;;;7.00;99.90;;;;;;5101532;28;20035;-63
2023/01/15 12:00:34;;;;;;;10.77;2.42;;;7.00;99.90;;;;;;5080630;28;20441;-59
2023/01/15 12:03:14;;;;;;;15.52;3.30;;;7.00;99.90;;;;;;5089258;28;20112;-61
2023/01/15 12:05:46;;;;;;;12.10;2.50;;;7.10;99.90;;;;;;5098245;28;20077;-62
2023/01/15 12:08:20;;;;;;;11.75;2.33;;;7.20;99.90;;;;;;5099776;28;20051;-62
2023/01/15 12:11:15;;;;;;;17.63;3.55;;;7.20;99.90;;;;;;5094985;28;20054;-61
2023/01/15 12:13:59;;;;;;;18.65;2.72;;;7.30;99.90;;;;;;5085535;28;20086;-61
2023/01/15 12:16:56;;;;;;;15.32;2.75;;;7.20;99.90;;;;;;5089767;28;20047;-61
2023/01/15 12:19:51;;;;;;;13.48;2.75;;;7.10;99.90;;;;;;5098857;28;20044;-61
2023/01/15 12:22:19;;;;;;;11.25;1.98;;;6.90;99.90;;;;;;5086147;28;20719;-61
2023/01/15 12:25:06;;;;;;;13.32;2.55;;;6.90;99.90;;;;;;5100282;28;20039;-61
2023/01/15 12:27:48;;;;;;;17.77;3.55;;;6.90;99.90;;;;;;5099602;28;20070;-62
2023/01/15 12:30:25;;;;;;;14.40;2.85;;;7.00;99.90;;;;;;5069681;28;20055;-62
2023/01/15 12:33:10;;;;;;;13.07;2.40;;;7.20;99.90;;;;;;5096388;28;20039;-61
2023/01/15 12:36:05;;;;;;;20.23;2.45;;;7.20;99.90;;;;;;5089826;28;20031;-63
2023/01/15 12:38:55;;;;;;;12.20;2.42;;;7.30;99.90;;;;;;5089145;28;20040;-66
2023/01/15 12:47:28;;;;;;;;;;;6.90;99.90;;;;;;5090944;28;20054;-60
2023/01/15 12:50:28;;;;;;;18.13;2.40;;;6.80;99.90;;;;;;5092730;28;19919;-62
2023/01/15 12:53:10;;;;;;;14.02;2.90;;;6.60;99.90;;;;;;5076446;28;20048;-60
2023/01/15 12:55:43;;;;;;;15.73;2.45;;;6.60;99.90;;;;;;5094898;28;20035;-64
2023/01/15 12:58:27;;;;;;;18.85;2.55;;;6.60;99.90;;;;;;5100401;28;20043;-60
2023/01/15 13:01:03;;;;;;;14.80;2.95;;;6.50;99.90;;;;;;5099307;28;20136;-62
2023/01/15 13:03:58;;;;;;;17.25;2.78;;;6.50;99.90;;;;;;5097552;28;20555;-61
2023/01/15 13:06:27;;;;;;;16.77;2.70;;;6.40;99.90;;;;;;5078287;28;20061;-58
2023/01/15 13:09:22;;;;;;;14.63;2.60;;;6.30;99.90;;;;;;5094678;28;20082;-66
2023/01/15 13:11:48;;;;;;;14.60;3.45;;;6.20;99.90;;;;;;5098539;28;20182;-63
2023/01/15 13:14:20;;;;;;;20.88;3.85;;;6.10;99.90;;;;;;5096280;28;20123;-62
2023/01/15 13:16:51;;;;;;;11.82;1.75;;;6.00;99.90;;;;;;5082204;28;20114;-60
2023/01/15 13:19:26;;;;;;;8.15;1.95;;;5.80;99.90;;;;;;5071418;28;20136;-62
2023/01/15 13:21:58;;;;;;;6.95;1.48;;;5.30;99.90;;;;;;5079222;28;20039;-62
2023/01/15 13:24:45;;;;;;;10.30;1.83;;;5.10;99.90;;;;;;5075934;28;20044;-62
2023/01/15 13:27:29;;;;;;;13.80;2.25;;;4.90;99.90;;;;;;5082110;28;20048;-62
2023/01/15 13:30:14;;;;;;;14.13;1.60;;;4.80;99.90;;;;;;5055836;28;20058;-63
2023/01/15 13:32:48;;;;;;;8.77;1.65;;;4.80;99.90;;;;;;5075886;28;20047;-65
2023/01/15 13:35:20;;;;;;;;;;;4.80;99.90;;;;;;5083967;28;20044;-62
2023/01/15 13:37:53;;;;;;;9.98;1.50;;;4.80;99.90;;;;;;5085577;28;19939;-62
2023/01/15 13:40:39;;;;;;;8.98;1.55;;;4.80;99.90;;;;;;5073955;28;20050;-61
2023/01/15 13:53:45;;;;;;;8.55;1.65;;;5.00;99.90;;;;;;5123721;22;20774;-64
2023/01/15 13:56:14;;;;;;;9.63;1.48;;;5.00;99.90;;;;;;5086094;28;20067;-66
2023/01/15 13:58:52;;;;;;;10.30;1.77;;;5.00;99.90;;;;;;5064945;28;20389;-65
2023/01/15 14:01:20;;;;;;;8.82;1.55;;;5.00;99.90;;;;;;5059720;28;20101;-64
2023/01/15 14:04:11;;;;;;;12.25;1.30;;;5.00;99.90;;;;;;5055227;28;20052;-64
2023/01/15 14:06:46;;;;;;;12.13;1.60;;;5.10;99.90;;;;;;5047871;28;20039;-65
2023/01/15 14:09:28;;;;;;;9.18;1.73;;;5.10;99.90;;;;;;5064510;28;20040;-61
2023/01/15 14:11:58;;;;;;;6.90;1.60;;;5.10;99.90;;;;;;5063783;28;20043;-64
2023/01/15 14:14:30;;;;;;;7.20;1.83;;;5.10;99.90;;;;;;5068262;28;20050;-64
2023/01/15 14:17:26;;;;;;;7.03;1.25;;;5.10;99.90;;;;;;5048178;28;20083;-62